createdAt,value
2022-11-19T00:02:29.289Z,70.14
2022-11-19T00:07:28.863Z,69.96
2022-11-19T00:12:45.902Z,69.89
2022-11-19T00:17:44.762Z,69.57
2022-11-19T00:22:45.066Z,69.42
2022-11-19T00:27:44.208Z,69.45
2022-11-19T00:32:43.956Z,69.58
2022-11-19T00:37:43.296Z,69.70
2022-11-19T00:43:02.987Z,69.59
2022-11-19T00:48:01.905Z,69.57
2022-11-19T00:53:05.437Z,69.60
2022-11-19T00:58:05.340Z,69.61
2022-11-19T01:03:04.454Z,69.71
2022-11-19T01:08:02.963Z,69.78
2022-11-19T01:13:19.044Z,69.54
2022-11-19T01:18:20.356Z,69.50
2022-11-19T01:23:20.273Z,69.41
2022-11-19T01:28:18.861Z,69.18
2022-11-19T01:33:18.721Z,69.15
2022-11-19T01:38:17.965Z,69.21
2022-11-19T01:43:19.257Z,69.04
2022-11-19T01:48:28.537Z,69.03
2022-11-19T01:53:36.920Z,69.15
2022-11-19T01:58:39.783Z,69.33
2022-11-19T02:03:40.939Z,69.48
2022-11-19T02:08:45.932Z,69.54
2022-11-19T02:13:54.139Z,69.60
2022-11-19T02:19:03.085Z,69.64
2022-11-19T02:24:52.074Z,69.79
2022-11-19T02:30:11.187Z,69.89
2022-11-19T02:35:25.411Z,69.79
2022-11-19T02:40:30.290Z,69.90
2022-11-19T02:45:34.962Z,69.90
2022-11-19T02:50:39.633Z,70.07
2022-11-19T02:55:40.570Z,70.18
2022-11-19T03:01:06.753Z,70.23
2022-11-19T03:06:12.977Z,70.39
2022-11-19T03:11:26.440Z,70.40
2022-11-19T03:16:44.999Z,70.47
2022-11-19T03:21:52.023Z,70.52
2022-11-19T03:26:59.450Z,70.64
2022-11-19T03:32:07.581Z,70.78
2022-11-19T03:37:10.288Z,70.92
2022-11-19T03:42:14.410Z,71.11
2022-11-19T03:47:19.978Z,71.32
2022-11-19T03:52:23.065Z,71.41
2022-11-19T03:57:26.572Z,71.46
2022-11-19T04:02:26.601Z,71.54
2022-11-19T04:07:28.346Z,71.60
2022-11-19T04:12:31.746Z,71.59
2022-11-19T04:17:30.854Z,71.56
2022-11-19T04:22:30.572Z,71.60
2022-11-19T04:27:29.308Z,71.58
2022-11-19T04:32:27.675Z,71.48
2022-11-19T04:37:27.742Z,71.68
2022-11-19T04:42:26.879Z,71.95
2022-11-19T04:47:26.023Z,72.26
2022-11-19T04:52:25.125Z,72.54
2022-11-19T04:57:24.011Z,72.74
2022-11-19T05:02:22.809Z,72.82
2022-11-19T05:07:26.869Z,72.94
2022-11-19T05:12:25.924Z,73.14
2022-11-19T05:17:25.270Z,73.32
2022-11-19T05:22:24.244Z,73.36
2022-11-19T05:27:23.662Z,73.44
2022-11-19T05:32:23.350Z,73.78
2022-11-19T05:37:22.775Z,73.85
2022-11-19T05:42:22.592Z,73.71
2022-11-19T05:47:23.796Z,73.68
2022-11-19T05:52:23.072Z,73.71
2022-11-19T05:57:22.392Z,73.64
2022-11-19T06:02:22.641Z,73.59
2022-11-19T06:07:21.853Z,73.75
2022-11-19T06:12:21.065Z,73.96
2022-11-19T06:17:20.239Z,74.10
2022-11-19T06:22:19.872Z,74.16
2022-11-19T06:27:19.075Z,74.16
2022-11-19T06:32:19.532Z,74.24
2022-11-19T06:37:18.600Z,74.26
2022-11-19T06:42:35.329Z,74.29
2022-11-19T06:47:36.145Z,74.28
2022-11-19T06:52:35.855Z,74.16
2022-11-19T06:57:34.843Z,74.19
2022-11-19T07:02:33.396Z,74.17
2022-11-19T07:07:32.184Z,74.18
2022-11-19T07:12:30.881Z,74.42
2022-11-19T07:17:30.207Z,74.77
2022-11-19T07:22:30.665Z,75.17
2022-11-19T07:27:29.558Z,75.25
2022-11-19T07:32:28.991Z,75.22
2022-11-19T07:37:28.361Z,74.79
2022-11-19T07:42:44.701Z,74.74
2022-11-19T07:47:43.674Z,75.21
2022-11-19T07:52:43.150Z,75.92
2022-11-19T07:57:41.749Z,76.25
2022-11-19T08:02:40.992Z,76.14
2022-11-19T08:07:41.784Z,76.04
2022-11-19T08:12:40.944Z,75.92
2022-11-19T08:17:57.008Z,75.06
2022-11-19T08:22:56.790Z,74.99
2022-11-19T08:27:56.085Z,75.39
2022-11-19T08:32:57.376Z,75.21
2022-11-19T08:37:58.531Z,75.36
2022-11-19T08:43:03.097Z,74.85
2022-11-19T08:48:03.893Z,74.74
2022-11-19T08:53:07.389Z,74.05
2022-11-19T08:58:08.876Z,74.23
2022-11-19T09:03:07.452Z,73.83
2022-11-19T09:08:07.693Z,73.75
2022-11-19T09:13:07.891Z,73.23
2022-11-19T09:18:07.326Z,72.44
2022-11-19T09:23:06.221Z,72.56
2022-11-19T09:28:05.400Z,71.99
2022-11-19T09:33:05.632Z,71.55
2022-11-19T09:38:04.512Z,71.53
2022-11-19T09:43:17.308Z,71.89
2022-11-19T09:48:37.252Z,72.05
2022-11-19T09:53:47.209Z,72.13
2022-11-19T09:58:47.415Z,71.54
2022-11-19T10:03:53.050Z,71.54
2022-11-19T10:09:26.074Z,71.89
2022-11-19T10:14:49.001Z,72.08
2022-11-19T10:20:13.210Z,72.31
2022-11-19T10:25:25.587Z,72.32
2022-11-19T10:30:30.294Z,72.24
2022-11-19T10:35:38.425Z,71.29
2022-11-19T10:40:46.972Z,69.10
2022-11-19T10:45:46.317Z,67.73
2022-11-19T10:50:47.633Z,66.88
2022-11-19T10:55:54.932Z,65.65
2022-11-19T11:00:57.004Z,64.44
2022-11-19T11:06:06.397Z,63.56
2022-11-19T11:11:05.936Z,62.01
2022-11-19T11:16:12.506Z,59.43
2022-11-19T11:21:26.085Z,58.66
2022-11-19T11:26:29.464Z,59.65
2022-11-19T11:31:40.231Z,60.30
2022-11-19T11:36:42.784Z,60.56
2022-11-19T11:47:14.752Z,59.65
2022-11-19T11:52:24.335Z,60.69
2022-11-19T11:57:26.576Z,61.67
2022-11-19T12:02:31.015Z,62.26
2022-11-19T12:07:56.932Z,62.61
2022-11-19T12:13:25.338Z,62.28
2022-11-19T12:18:39.050Z,62.50
2022-11-19T12:24:04.104Z,63.13
2022-11-19T12:29:18.903Z,63.12
2022-11-19T12:34:49.391Z,62.52
2022-11-19T12:39:58.882Z,61.56
2022-11-19T12:45:08.214Z,60.24
2022-11-19T12:50:27.764Z,60.08
2022-11-19T12:55:37.705Z,60.33
2022-11-19T13:00:47.945Z,60.53
2022-11-19T13:05:55.463Z,60.22
2022-11-19T13:11:05.751Z,60.81
2022-11-19T13:16:12.537Z,60.44
2022-11-19T13:21:25.887Z,60.58
2022-11-19T13:26:31.379Z,60.76
2022-11-19T13:31:40.655Z,61.13
2022-11-19T13:36:47.976Z,61.40
2022-11-19T13:42:11.455Z,62.12
2022-11-19T13:47:20.003Z,62.65
2022-11-19T13:52:31.928Z,62.74
2022-11-19T13:57:39.186Z,62.97
2022-11-19T14:03:08.665Z,63.08
2022-11-19T14:08:30.219Z,63.22
2022-11-19T14:13:50.618Z,63.15
2022-11-19T14:19:11.290Z,63.53
2022-11-19T14:25:15.225Z,63.72
2022-11-19T14:30:50.934Z,63.55
2022-11-19T14:35:50.748Z,63.64
2022-11-19T14:41:00.307Z,63.56
2022-11-19T14:46:31.244Z,63.67
2022-11-19T14:51:37.931Z,64.01
2022-11-19T14:56:41.051Z,64.29
2022-11-19T15:01:59.052Z,64.48
2022-11-19T15:07:00.676Z,64.67
2022-11-19T15:12:05.438Z,64.86
2022-11-19T15:17:07.474Z,65.18
2022-11-19T15:22:30.151Z,65.40
2022-11-19T15:27:52.460Z,65.62
2022-11-19T15:33:16.543Z,65.90
2022-11-19T15:38:36.441Z,66.16
2022-11-19T15:43:46.550Z,66.48
2022-11-19T15:48:58.968Z,66.77
2022-11-19T15:54:07.565Z,67.15
2022-11-19T15:59:11.971Z,67.40
2022-11-19T16:04:15.997Z,67.69
2022-11-19T16:09:23.756Z,67.93
2022-11-19T16:14:45.858Z,68.15
2022-11-19T16:19:44.708Z,68.28
2022-11-19T16:25:01.342Z,68.42
2022-11-19T16:30:01.691Z,68.53
2022-11-19T16:35:24.797Z,68.67
2022-11-19T16:40:28.282Z,68.78
2022-11-19T16:45:30.534Z,68.87
2022-11-19T16:50:43.791Z,68.96
2022-11-19T16:56:17.000Z,69.12
2022-11-19T17:01:29.362Z,69.29
2022-11-19T17:06:32.916Z,69.43
2022-11-19T17:12:09.311Z,69.50
2022-11-19T17:17:28.009Z,69.62
2022-11-19T17:22:32.294Z,69.71
2022-11-19T17:27:37.361Z,69.75
2022-11-19T17:32:47.428Z,69.79
2022-11-19T17:37:46.829Z,69.93
2022-11-19T17:43:06.335Z,70.03
2022-11-19T17:48:13.734Z,70.23
2022-11-19T17:53:13.777Z,70.24
2022-11-19T17:58:13.094Z,70.28
2022-11-19T18:03:16.600Z,70.29
2022-11-19T18:08:16.769Z,70.22
2022-11-19T18:13:22.211Z,70.31
2022-11-19T18:18:22.001Z,70.43
2022-11-19T18:23:21.303Z,70.51
2022-11-19T18:28:20.314Z,70.65
2022-11-19T18:33:19.906Z,70.69
2022-11-19T18:38:19.480Z,70.79
2022-11-19T18:43:39.805Z,70.90
2022-11-19T18:48:39.327Z,70.98
2022-11-19T18:53:38.722Z,71.00
2022-11-19T18:58:38.488Z,71.01
2022-11-19T19:03:37.773Z,71.12
2022-11-19T19:08:37.962Z,71.21
2022-11-19T19:13:37.219Z,71.28
2022-11-19T19:26:11.708Z,71.37
2022-11-19T19:31:16.509Z,71.40
2022-11-19T19:36:18.909Z,71.39
2022-11-19T19:41:23.824Z,71.43
2022-11-19T19:46:25.277Z,71.42
2022-11-19T19:51:27.785Z,71.46
2022-11-19T19:56:30.674Z,71.50
2022-11-19T20:01:32.966Z,71.50
2022-11-19T20:06:34.417Z,71.53
2022-11-19T20:11:33.612Z,71.51
2022-11-19T20:16:34.258Z,71.57
2022-11-19T20:21:36.640Z,71.61
2022-11-19T20:26:36.587Z,71.71
2022-11-19T20:31:37.415Z,71.85
2022-11-19T20:36:38.256Z,71.93
2022-11-19T20:41:54.956Z,71.99
2022-11-19T20:46:57.137Z,72.00
2022-11-19T20:51:58.562Z,72.01
2022-11-19T20:56:59.651Z,72.07
2022-11-19T21:02:00.960Z,72.18
2022-11-19T21:07:00.083Z,72.27
2022-11-19T21:11:59.137Z,72.39
2022-11-19T21:16:58.081Z,72.51
2022-11-19T21:21:57.353Z,72.61
2022-11-19T21:26:56.288Z,72.68
2022-11-19T21:31:55.801Z,72.84
2022-11-19T21:36:58.102Z,73.00
2022-11-19T21:41:57.164Z,73.13
2022-11-19T21:46:56.483Z,73.26
2022-11-19T21:51:55.331Z,73.43
2022-11-19T21:56:55.575Z,73.58
2022-11-19T22:01:55.185Z,73.61
2022-11-19T22:06:54.749Z,73.57
2022-11-19T22:11:57.064Z,73.50
2022-11-19T22:16:56.217Z,73.43
2022-11-19T22:21:55.098Z,73.39
2022-11-19T22:26:54.133Z,73.32
2022-11-19T22:31:53.755Z,73.21
2022-11-19T22:36:53.279Z,73.17
2022-11-19T22:41:52.993Z,73.10
2022-11-19T22:46:51.987Z,73.01
2022-11-19T22:51:51.117Z,73.00
2022-11-19T22:56:49.902Z,72.93
2022-11-19T23:01:49.062Z,72.97
2022-11-19T23:06:48.227Z,73.00
2022-11-19T23:12:07.877Z,73.00
2022-11-19T23:17:07.253Z,73.00
2022-11-19T23:22:06.877Z,73.03
2022-11-19T23:27:05.749Z,73.11
2022-11-19T23:32:04.816Z,73.14
2022-11-19T23:37:04.299Z,73.14
2022-11-19T23:42:03.849Z,73.13
2022-11-19T23:47:03.610Z,73.14
2022-11-19T23:52:02.912Z,73.14
2022-11-19T23:57:02.748Z,73.14
